This is the latest recevied weather packets stored in our database for station/object WP4NYS-13. If no packets are shown the sender has not sent any weather packets the latest 10 day(s).
| Time | Temp. | Humidity | Pressure | Rain* | Wind** | Luminosity | Snow |
|---|---|---|---|---|---|---|---|
| 1777585195 | 28.89° C | 59% | 1009.1 hPa | 0 mm | - | - | - |
| 1777584891 | 28.89° C | 60% | 1009.3 hPa | 0 mm | - | - | - |
| 1777584589 | 28.89° C | 59% | 1009.5 hPa | 0 mm | - | - | - |
| 1777584285 | 28.89° C | 59% | 1009.5 hPa | 0 mm | - | - | - |
| 1777583980 | 28.89° C | 60% | 1009.5 hPa | 0 mm | - | - | - |
| 1777583675 | 29.44° C | 60% | 1009.5 hPa | 0 mm | - | - | - |
| 1777583375 | 29.44° C | 60% | 1009.7 hPa | 0 mm | - | - | - |
| 1777583074 | 28.33° C | 60% | 1009.7 hPa | 0 mm | - | - | - |
| 1777582771 | 27.78° C | 65% | 1009.7 hPa | 0 mm | - | - | - |
| 1777582466 | 27.22° C | 67% | 1009.9 hPa | 0 mm | - | - | - |
| 1777582161 | 26.11° C | 69% | 1009.6 hPa | 0 mm | - | - | - |
| 1777581861 | 26.11° C | 77% | 1009.9 hPa | 0 mm | - | - | - |
| 1777581561 | 25.56° C | 77% | 1009.8 hPa | 0 mm | - | - | - |
| 1777581256 | 25.56° C | 82% | 1009.6 hPa | 0 mm | - | - | - |
| 1777580951 | 25° C | 78% | 1010 hPa | 0 mm | - | - | - |
| 1777580651 | 25° C | 83% | 1010.1 hPa | 0 mm | - | - | - |
| 1777580346 | 25° C | 80% | 1010.2 hPa | 0 mm | - | - | - |
| 1777580043 | 26.11° C | 74% | 1010.1 hPa | 3.05 mm | - | - | - |
| 1777579739 | 27.78° C | 68% | 1010 hPa | 1.78 mm | - | - | - |
| 1777579437 | 29.44° C | 58% | 1010.3 hPa | 0 mm | - | - | - |
| 1777579133 | 30° C | 53% | 1010 hPa | 0 mm | - | - | - |
| 1777578832 | 30° C | 53% | 1010 hPa | 0 mm | - | - | - |
| 1777578529 | 30° C | 55% | 1010.2 hPa | 0 mm | - | - | - |
| 1777578223 | 30° C | 57% | 1010.1 hPa | 0 mm | - | - | - |
| 1777577919 | 30.56° C | 56% | 1010.2 hPa | 0 mm | - | - | - |
* Rain latest hour (hover to see other rain measurements)
** Current wind speed in m/s (hover to see current wind gust speed)